Terminal Aerodrome Forecast
Issued by NWS

Home | Current Version | Previous Version | Graphics & Text | Print | Product List | Glossary On
Versions: 1 2 3 4 5 6 7 8 9 10 11 12 13 14 15
000
FTUS43 KICT 271700
TAFRSL
TAF
KRSL 271721Z 2718/2818 34018G26KT P6SM BKN200
     FM280100 33010KT P6SM BKN150
     FM280400 24005KT P6SM BKN200=

USA.gov is the U.S. government's official web portal to all federal, state and local government web resources and services.